sensor_id;sensor_type;location;lat;lon;timestamp;P1;durP1;ratioP1;P2;durP2;ratioP2
17985;SDS011;9118;48.122;11.546;2022-08-21T00:00:20;3.97;;;3.57;;
17985;SDS011;9118;48.122;11.546;2022-08-21T00:02:54;3.60;;;3.30;;
17985;SDS011;9118;48.122;11.546;2022-08-21T00:05:23;4.03;;;3.33;;
17985;SDS011;9118;48.122;11.546;2022-08-21T00:07:51;4.00;;;3.63;;
17985;SDS011;9118;48.122;11.546;2022-08-21T00:10:18;4.57;;;3.03;;
17985;SDS011;9118;48.122;11.546;2022-08-21T00:12:45;3.50;;;3.20;;
17985;SDS011;9118;48.122;11.546;2022-08-21T00:15:14;3.53;;;2.97;;
17985;SDS011;9118;48.122;11.546;2022-08-21T00:17:43;3.53;;;3.17;;
17985;SDS011;9118;48.122;11.546;2022-08-21T00:20:12;3.97;;;3.53;;
17985;SDS011;9118;48.122;11.546;2022-08-21T00:22:41;3.37;;;2.87;;
17985;SDS011;9118;48.122;11.546;2022-08-21T00:25:11;3.20;;;2.90;;
17985;SDS011;9118;48.122;11.546;2022-08-21T00:27:38;3.00;;;2.80;;
17985;SDS011;9118;48.122;11.546;2022-08-21T00:30:08;3.33;;;3.03;;
17985;SDS011;9118;48.122;11.546;2022-08-21T00:32:39;3.30;;;3.00;;
17985;SDS011;9118;48.122;11.546;2022-08-21T00:35:07;4.83;;;2.90;;
17985;SDS011;9118;48.122;11.546;2022-08-21T00:37:39;3.33;;;3.03;;
17985;SDS011;9118;48.122;11.546;2022-08-21T00:40:09;3.40;;;3.13;;
17985;SDS011;9118;48.122;11.546;2022-08-21T00:42:38;3.30;;;3.00;;
17985;SDS011;9118;48.122;11.546;2022-08-21T00:45:06;3.10;;;2.90;;
17985;SDS011;9118;48.122;11.546;2022-08-21T00:47:34;3.90;;;2.77;;
17985;SDS011;9118;48.122;11.546;2022-08-21T00:50:01;3.20;;;2.90;;
17985;SDS011;9118;48.122;11.546;2022-08-21T00:52:30;3.53;;;2.83;;
17985;SDS011;9118;48.122;11.546;2022-08-21T00:55:01;3.57;;;2.70;;
17985;SDS011;9118;48.122;11.546;2022-08-21T00:57:37;3.13;;;2.90;;
17985;SDS011;9118;48.122;11.546;2022-08-21T01:00:10;3.03;;;2.60;;
17985;SDS011;9118;48.122;11.546;2022-08-21T01:02:42;3.53;;;2.90;;
17985;SDS011;9118;48.122;11.546;2022-08-21T01:05:10;2.93;;;2.73;;
17985;SDS011;9118;48.122;11.546;2022-08-21T01:07:38;6.27;;;2.77;;
17985;SDS011;9118;48.122;11.546;2022-08-21T01:10:08;3.00;;;2.80;;
17985;SDS011;9118;48.122;11.546;2022-08-21T01:12:36;3.13;;;2.90;;
17985;SDS011;9118;48.122;11.546;2022-08-21T01:15:05;3.03;;;2.63;;
17985;SDS011;9118;48.122;11.546;2022-08-21T01:17:34;4.30;;;3.30;;
17985;SDS011;9118;48.122;11.546;2022-08-21T01:20:03;3.67;;;2.80;;
17985;SDS011;9118;48.122;11.546;2022-08-21T01:22:34;2.77;;;2.57;;
17985;SDS011;9118;48.122;11.546;2022-08-21T01:25:02;3.93;;;2.70;;
17985;SDS011;9118;48.122;11.546;2022-08-21T01:27:30;3.00;;;2.70;;
17985;SDS011;9118;48.122;11.546;2022-08-21T01:29:58;11.57;;;9.57;;
17985;SDS011;9118;48.122;11.546;2022-08-21T01:32:33;3.63;;;2.97;;
17985;SDS011;9118;48.122;11.546;2022-08-21T01:35:01;3.03;;;2.70;;
17985;SDS011;9118;48.122;11.546;2022-08-21T01:37:29;4.73;;;2.70;;
17985;SDS011;9118;48.122;11.546;2022-08-21T01:39:57;2.80;;;2.60;;
17985;SDS011;9118;48.122;11.546;2022-08-21T01:42:26;3.93;;;3.03;;
17985;SDS011;9118;48.122;11.546;2022-08-21T01:44:53;3.90;;;3.03;;
17985;SDS011;9118;48.122;11.546;2022-08-21T01:47:21;2.93;;;2.63;;
17985;SDS011;9118;48.122;11.546;2022-08-21T01:49:48;5.27;;;2.77;;
17985;SDS011;9118;48.122;11.546;2022-08-21T01:52:16;3.03;;;2.83;;
17985;SDS011;9118;48.122;11.546;2022-08-21T01:54:44;2.90;;;2.70;;
17985;SDS011;9118;48.122;11.546;2022-08-21T01:57:13;2.70;;;2.50;;
17985;SDS011;9118;48.122;11.546;2022-08-21T01:59:40;3.20;;;2.50;;
17985;SDS011;9118;48.122;11.546;2022-08-21T02:02:08;6.23;;;2.70;;
17985;SDS011;9118;48.122;11.546;2022-08-21T02:04:36;4.00;;;2.87;;
17985;SDS011;9118;48.122;11.546;2022-08-21T02:07:03;2.83;;;2.60;;
17985;SDS011;9118;48.122;11.546;2022-08-21T02:09:38;3.60;;;3.07;;
17985;SDS011;9118;48.122;11.546;2022-08-21T02:12:08;3.40;;;3.10;;
17985;SDS011;9118;48.122;11.546;2022-08-21T02:14:36;3.43;;;2.70;;
17985;SDS011;9118;48.122;11.546;2022-08-21T02:17:03;2.67;;;2.47;;
17985;SDS011;9118;48.122;11.546;2022-08-21T02:19:31;3.73;;;2.80;;
17985;SDS011;9118;48.122;11.546;2022-08-21T02:21:58;3.50;;;3.00;;
17985;SDS011;9118;48.122;11.546;2022-08-21T02:24:25;3.03;;;2.83;;
17985;SDS011;9118;48.122;11.546;2022-08-21T02:26:54;3.30;;;3.00;;
17985;SDS011;9118;48.122;11.546;2022-08-21T02:29:21;4.30;;;2.80;;
17985;SDS011;9118;48.122;11.546;2022-08-21T02:31:49;3.83;;;2.93;;
17985;SDS011;9118;48.122;11.546;2022-08-21T02:34:18;3.13;;;2.90;;
17985;SDS011;9118;48.122;11.546;2022-08-21T02:36:45;2.93;;;2.63;;
17985;SDS011;9118;48.122;11.546;2022-08-21T02:39:12;3.20;;;2.90;;
17985;SDS011;9118;48.122;11.546;2022-08-21T02:41:39;2.70;;;2.50;;
17985;SDS011;9118;48.122;11.546;2022-08-21T02:44:06;2.90;;;2.70;;
17985;SDS011;9118;48.122;11.546;2022-08-21T02:46:33;2.83;;;2.63;;
17985;SDS011;9118;48.122;11.546;2022-08-21T02:49:01;4.63;;;2.70;;
17985;SDS011;9118;48.122;11.546;2022-08-21T02:51:28;2.97;;;2.77;;
17985;SDS011;9118;48.122;11.546;2022-08-21T02:53:56;3.00;;;2.80;;
17985;SDS011;9118;48.122;11.546;2022-08-21T02:56:23;3.20;;;2.97;;
17985;SDS011;9118;48.122;11.546;2022-08-21T02:58:51;3.00;;;2.80;;
17985;SDS011;9118;48.122;11.546;2022-08-21T03:01:18;4.43;;;3.13;;
17985;SDS011;9118;48.122;11.546;2022-08-21T03:03:47;3.30;;;3.00;;
17985;SDS011;9118;48.122;11.546;2022-08-21T03:06:19;3.70;;;3.07;;
17985;SDS011;9118;48.122;11.546;2022-08-21T03:08:48;3.33;;;3.03;;
17985;SDS011;9118;48.122;11.546;2022-08-21T03:11:17;4.00;;;2.90;;
17985;SDS011;9118;48.122;11.546;2022-08-21T03:13:46;3.33;;;3.03;;
17985;SDS011;9118;48.122;11.546;2022-08-21T03:16:13;4.60;;;3.20;;
17985;SDS011;9118;48.122;11.546;2022-08-21T03:18:40;4.63;;;3.10;;
17985;SDS011;9118;48.122;11.546;2022-08-21T03:21:07;3.13;;;2.93;;
17985;SDS011;9118;48.122;11.546;2022-08-21T03:23:36;2.90;;;2.70;;
17985;SDS011;9118;48.122;11.546;2022-08-21T03:26:04;4.83;;;3.10;;
17985;SDS011;9118;48.122;11.546;2022-08-21T03:28:32;3.47;;;3.17;;
17985;SDS011;9118;48.122;11.546;2022-08-21T03:31:00;3.23;;;2.93;;
17985;SDS011;9118;48.122;11.546;2022-08-21T03:33:27;3.27;;;3.07;;
17985;SDS011;9118;48.122;11.546;2022-08-21T03:35:56;3.50;;;3.20;;
17985;SDS011;9118;48.122;11.546;2022-08-21T03:38:28;3.60;;;3.30;;
17985;SDS011;9118;48.122;11.546;2022-08-21T03:40:58;3.43;;;3.20;;
17985;SDS011;9118;48.122;11.546;2022-08-21T03:43:26;3.43;;;3.13;;
17985;SDS011;9118;48.122;11.546;2022-08-21T03:45:53;3.27;;;3.00;;
17985;SDS011;9118;48.122;11.546;2022-08-21T03:48:20;3.40;;;3.20;;
17985;SDS011;9118;48.122;11.546;2022-08-21T03:50:47;3.43;;;3.20;;
17985;SDS011;9118;48.122;11.546;2022-08-21T03:53:14;4.40;;;3.30;;
17985;SDS011;9118;48.122;11.546;2022-08-21T03:55:43;4.00;;;3.43;;
17985;SDS011;9118;48.122;11.546;2022-08-21T03:58:12;3.60;;;3.30;;
17985;SDS011;9118;48.122;11.546;2022-08-21T04:00:40;3.97;;;3.23;;
17985;SDS011;9118;48.122;11.546;2022-08-21T04:03:07;3.60;;;3.30;;
17985;SDS011;9118;48.122;11.546;2022-08-21T04:05:34;4.50;;;3.60;;
17985;SDS011;9118;48.122;11.546;2022-08-21T04:08:03;3.40;;;3.20;;
17985;SDS011;9118;48.122;11.546;2022-08-21T04:10:31;4.23;;;3.47;;
17985;SDS011;9118;48.122;11.546;2022-08-21T04:13:01;4.07;;;3.53;;
17985;SDS011;9118;48.122;11.546;2022-08-21T04:15:31;4.03;;;3.67;;
17985;SDS011;9118;48.122;11.546;2022-08-21T04:17:59;3.53;;;3.23;;
17985;SDS011;9118;48.122;11.546;2022-08-21T04:20:26;4.23;;;3.80;;
17985;SDS011;9118;48.122;11.546;2022-08-21T04:22:53;3.93;;;3.20;;
17985;SDS011;9118;48.122;11.546;2022-08-21T04:25:21;3.57;;;3.27;;
17985;SDS011;9118;48.122;11.546;2022-08-21T04:27:51;3.93;;;3.30;;
17985;SDS011;9118;48.122;11.546;2022-08-21T04:30:20;3.47;;;3.07;;
17985;SDS011;9118;48.122;11.546;2022-08-21T04:32:49;3.37;;;3.07;;
17985;SDS011;9118;48.122;11.546;2022-08-21T04:35:18;3.70;;;3.07;;
17985;SDS011;9118;48.122;11.546;2022-08-21T04:37:47;3.50;;;3.20;;
17985;SDS011;9118;48.122;11.546;2022-08-21T04:40:16;3.23;;;3.00;;
17985;SDS011;9118;48.122;11.546;2022-08-21T04:42:45;6.50;;;3.90;;
17985;SDS011;9118;48.122;11.546;2022-08-21T04:45:18;3.67;;;3.37;;
17985;SDS011;9118;48.122;11.546;2022-08-21T04:47:50;3.63;;;3.30;;
17985;SDS011;9118;48.122;11.546;2022-08-21T04:50:18;3.47;;;3.20;;
17985;SDS011;9118;48.122;11.546;2022-08-21T04:52:49;4.10;;;3.33;;
17985;SDS011;9118;48.122;11.546;2022-08-21T04:55:16;3.90;;;3.60;;
17985;SDS011;9118;48.122;11.546;2022-08-21T04:57:45;5.97;;;3.50;;
17985;SDS011;9118;48.122;11.546;2022-08-21T05:00:13;3.80;;;3.50;;
17985;SDS011;9118;48.122;11.546;2022-08-21T05:02:46;4.17;;;3.50;;
17985;SDS011;9118;48.122;11.546;2022-08-21T05:05:19;4.50;;;4.00;;
17985;SDS011;9118;48.122;11.546;2022-08-21T05:07:47;4.17;;;3.37;;
17985;SDS011;9118;48.122;11.546;2022-08-21T05:10:14;5.00;;;3.23;;
17985;SDS011;9118;48.122;11.546;2022-08-21T05:12:42;4.63;;;3.30;;
17985;SDS011;9118;48.122;11.546;2022-08-21T05:15:10;3.70;;;3.40;;
17985;SDS011;9118;48.122;11.546;2022-08-21T05:17:39;3.80;;;3.50;;
17985;SDS011;9118;48.122;11.546;2022-08-21T05:20:08;4.67;;;3.60;;
17985;SDS011;9118;48.122;11.546;2022-08-21T05:22:37;5.83;;;3.80;;
17985;SDS011;9118;48.122;11.546;2022-08-21T05:25:05;3.93;;;3.63;;
17985;SDS011;9118;48.122;11.546;2022-08-21T05:27:35;3.77;;;3.37;;
17985;SDS011;9118;48.122;11.546;2022-08-21T05:30:04;3.73;;;3.27;;
17985;SDS011;9118;48.122;11.546;2022-08-21T05:32:36;4.17;;;3.40;;
17985;SDS011;9118;48.122;11.546;2022-08-21T05:35:03;3.57;;;3.27;;
17985;SDS011;9118;48.122;11.546;2022-08-21T05:37:33;3.30;;;3.00;;
17985;SDS011;9118;48.122;11.546;2022-08-21T05:40:01;3.77;;;3.47;;
17985;SDS011;9118;48.122;11.546;2022-08-21T05:42:30;3.60;;;3.30;;
17985;SDS011;9118;48.122;11.546;2022-08-21T05:44:57;5.77;;;3.27;;
17985;SDS011;9118;48.122;11.546;2022-08-21T05:47:24;5.57;;;3.40;;
17985;SDS011;9118;48.122;11.546;2022-08-21T05:49:51;3.67;;;3.37;;
17985;SDS011;9118;48.122;11.546;2022-08-21T05:52:18;3.30;;;3.00;;
17985;SDS011;9118;48.122;11.546;2022-08-21T05:54:47;5.07;;;3.80;;
17985;SDS011;9118;48.122;11.546;2022-08-21T05:57:19;5.53;;;4.17;;
17985;SDS011;9118;48.122;11.546;2022-08-21T05:59:46;4.17;;;3.47;;
17985;SDS011;9118;48.122;11.546;2022-08-21T06:02:13;3.10;;;2.90;;
17985;SDS011;9118;48.122;11.546;2022-08-21T06:04:42;3.80;;;3.13;;
17985;SDS011;9118;48.122;11.546;2022-08-21T06:07:11;3.40;;;3.03;;
17985;SDS011;9118;48.122;11.546;2022-08-21T06:09:39;3.50;;;3.17;;
17985;SDS011;9118;48.122;11.546;2022-08-21T06:12:09;3.53;;;3.23;;
17985;SDS011;9118;48.122;11.546;2022-08-21T06:14:40;3.83;;;3.27;;
17985;SDS011;9118;48.122;11.546;2022-08-21T06:17:08;3.83;;;3.17;;
17985;SDS011;9118;48.122;11.546;2022-08-21T06:19:37;3.43;;;3.13;;
17985;SDS011;9118;48.122;11.546;2022-08-21T06:22:05;3.50;;;3.20;;
17985;SDS011;9118;48.122;11.546;2022-08-21T06:24:41;3.70;;;3.40;;
17985;SDS011;9118;48.122;11.546;2022-08-21T06:27:10;4.40;;;2.90;;
17985;SDS011;9118;48.122;11.546;2022-08-21T06:29:41;4.20;;;3.03;;
17985;SDS011;9118;48.122;11.546;2022-08-21T06:32:09;3.40;;;3.10;;
17985;SDS011;9118;48.122;11.546;2022-08-21T06:34:38;3.73;;;3.20;;
17985;SDS011;9118;48.122;11.546;2022-08-21T06:37:06;3.20;;;3.00;;
17985;SDS011;9118;48.122;11.546;2022-08-21T06:39:34;5.40;;;3.60;;
17985;SDS011;9118;48.122;11.546;2022-08-21T06:42:04;3.80;;;3.50;;
17985;SDS011;9118;48.122;11.546;2022-08-21T06:44:33;4.90;;;3.40;;
17985;SDS011;9118;48.122;11.546;2022-08-21T06:47:00;3.23;;;2.93;;
17985;SDS011;9118;48.122;11.546;2022-08-21T06:49:27;3.83;;;3.03;;
17985;SDS011;9118;48.122;11.546;2022-08-21T06:51:54;3.30;;;2.90;;
17985;SDS011;9118;48.122;11.546;2022-08-21T06:54:22;3.40;;;3.10;;
17985;SDS011;9118;48.122;11.546;2022-08-21T06:56:49;3.17;;;2.87;;
17985;SDS011;9118;48.122;11.546;2022-08-21T06:59:17;3.00;;;2.70;;
17985;SDS011;9118;48.122;11.546;2022-08-21T07:01:45;2.80;;;2.60;;
17985;SDS011;9118;48.122;11.546;2022-08-21T07:04:13;3.00;;;2.80;;
17985;SDS011;9118;48.122;11.546;2022-08-21T07:06:42;6.43;;;3.00;;
17985;SDS011;9118;48.122;11.546;2022-08-21T07:09:09;3.10;;;2.90;;
17985;SDS011;9118;48.122;11.546;2022-08-21T07:11:36;3.47;;;2.80;;
17985;SDS011;9118;48.122;11.546;2022-08-21T07:14:04;3.57;;;2.80;;
17985;SDS011;9118;48.122;11.546;2022-08-21T07:16:31;5.47;;;3.33;;
17985;SDS011;9118;48.122;11.546;2022-08-21T07:19:00;5.80;;;3.47;;
17985;SDS011;9118;48.122;11.546;2022-08-21T07:21:28;3.50;;;3.20;;
17985;SDS011;9118;48.122;11.546;2022-08-21T07:23:58;4.73;;;3.40;;
17985;SDS011;9118;48.122;11.546;2022-08-21T07:26:25;4.00;;;3.67;;
17985;SDS011;9118;48.122;11.546;2022-08-21T07:28:52;4.33;;;3.53;;
17985;SDS011;9118;48.122;11.546;2022-08-21T07:31:20;6.63;;;3.67;;
17985;SDS011;9118;48.122;11.546;2022-08-21T07:33:54;3.93;;;3.53;;
17985;SDS011;9118;48.122;11.546;2022-08-21T07:36:26;4.17;;;3.83;;
17985;SDS011;9118;48.122;11.546;2022-08-21T07:38:56;3.67;;;3.30;;
17985;SDS011;9118;48.122;11.546;2022-08-21T07:41:24;4.10;;;3.60;;
17985;SDS011;9118;48.122;11.546;2022-08-21T07:43:53;6.00;;;4.60;;
17985;SDS011;9118;48.122;11.546;2022-08-21T07:46:22;3.70;;;3.40;;
17985;SDS011;9118;48.122;11.546;2022-08-21T07:48:50;3.93;;;3.60;;
17985;SDS011;9118;48.122;11.546;2022-08-21T07:51:18;5.57;;;3.80;;
17985;SDS011;9118;48.122;11.546;2022-08-21T07:53:49;4.50;;;4.10;;
17985;SDS011;9118;48.122;11.546;2022-08-21T07:56:17;4.70;;;4.30;;
17985;SDS011;9118;48.122;11.546;2022-08-21T07:58:45;5.87;;;4.40;;
17985;SDS011;9118;48.122;11.546;2022-08-21T08:01:13;4.80;;;4.30;;
17985;SDS011;9118;48.122;11.546;2022-08-21T08:03:40;4.73;;;4.30;;
17985;SDS011;9118;48.122;11.546;2022-08-21T08:06:08;6.00;;;4.30;;
17985;SDS011;9118;48.122;11.546;2022-08-21T08:08:41;8.37;;;4.50;;
17985;SDS011;9118;48.122;11.546;2022-08-21T08:11:14;6.13;;;4.57;;
17985;SDS011;9118;48.122;11.546;2022-08-21T08:13:45;4.90;;;4.47;;
17985;SDS011;9118;48.122;11.546;2022-08-21T08:16:13;6.67;;;4.80;;
17985;SDS011;9118;48.122;11.546;2022-08-21T08:18:41;5.50;;;4.80;;
17985;SDS011;9118;48.122;11.546;2022-08-21T08:21:09;5.43;;;4.93;;
17985;SDS011;9118;48.122;11.546;2022-08-21T08:23:40;5.47;;;4.90;;
17985;SDS011;9118;48.122;11.546;2022-08-21T08:26:11;5.10;;;4.60;;
17985;SDS011;9118;48.122;11.546;2022-08-21T08:28:40;5.57;;;4.97;;
17985;SDS011;9118;48.122;11.546;2022-08-21T08:31:08;4.97;;;4.50;;
17985;SDS011;9118;48.122;11.546;2022-08-21T08:33:35;6.73;;;5.13;;
17985;SDS011;9118;48.122;11.546;2022-08-21T08:36:02;4.87;;;4.47;;
17985;SDS011;9118;48.122;11.546;2022-08-21T08:38:30;5.83;;;5.30;;
17985;SDS011;9118;48.122;11.546;2022-08-21T08:40:58;5.80;;;4.73;;
17985;SDS011;9118;48.122;11.546;2022-08-21T08:43:33;5.43;;;4.93;;
17985;SDS011;9118;48.122;11.546;2022-08-21T08:46:06;4.87;;;4.37;;
17985;SDS011;9118;48.122;11.546;2022-08-21T08:48:43;6.70;;;4.77;;
17985;SDS011;9118;48.122;11.546;2022-08-21T08:51:16;5.70;;;5.07;;
17985;SDS011;9118;48.122;11.546;2022-08-21T08:53:54;5.03;;;4.53;;
17985;SDS011;9118;48.122;11.546;2022-08-21T08:56:35;5.70;;;5.13;;
17985;SDS011;9118;48.122;11.546;2022-08-21T08:59:05;5.27;;;4.80;;
17985;SDS011;9118;48.122;11.546;2022-08-21T09:01:36;6.43;;;5.63;;
17985;SDS011;9118;48.122;11.546;2022-08-21T09:04:03;7.63;;;4.93;;
17985;SDS011;9118;48.122;11.546;2022-08-21T09:06:36;5.90;;;5.30;;
17985;SDS011;9118;48.122;11.546;2022-08-21T09:09:14;5.50;;;5.00;;
17985;SDS011;9118;48.122;11.546;2022-08-21T09:11:50;8.03;;;5.13;;
17985;SDS011;9118;48.122;11.546;2022-08-21T09:14:29;6.60;;;5.70;;
17985;SDS011;9118;48.122;11.546;2022-08-21T09:17:10;7.17;;;4.97;;
17985;SDS011;9118;48.122;11.546;2022-08-21T09:19:47;5.90;;;5.40;;
17985;SDS011;9118;48.122;11.546;2022-08-21T09:22:24;5.87;;;5.37;;
17985;SDS011;9118;48.122;11.546;2022-08-21T09:25:03;6.93;;;5.20;;
17985;SDS011;9118;48.122;11.546;2022-08-21T09:27:35;5.37;;;4.87;;
17985;SDS011;9118;48.122;11.546;2022-08-21T09:30:04;5.37;;;4.70;;
17985;SDS011;9118;48.122;11.546;2022-08-21T09:32:33;5.57;;;5.07;;
17985;SDS011;9118;48.122;11.546;2022-08-21T09:35:03;6.00;;;5.40;;
17985;SDS011;9118;48.122;11.546;2022-08-21T09:37:34;6.93;;;5.37;;
17985;SDS011;9118;48.122;11.546;2022-08-21T09:40:18;7.03;;;4.80;;
17985;SDS011;9118;48.122;11.546;2022-08-21T09:44:02;5.33;;;4.83;;
17985;SDS011;9118;48.122;11.546;2022-08-21T09:46:10;5.93;;;5.00;;
17985;SDS011;9118;48.122;11.546;2022-08-21T09:48:46;4.90;;;4.50;;
17985;SDS011;9118;48.122;11.546;2022-08-21T09:51:15;5.10;;;4.70;;
17985;SDS011;9118;48.122;11.546;2022-08-21T09:53:45;5.20;;;4.70;;
17985;SDS011;9118;48.122;11.546;2022-08-21T09:56:16;5.13;;;4.47;;
17985;SDS011;9118;48.122;11.546;2022-08-21T09:59:12;5.37;;;4.30;;
17985;SDS011;9118;48.122;11.546;2022-08-21T10:01:44;4.10;;;3.80;;
17985;SDS011;9118;48.122;11.546;2022-08-21T10:04:12;4.83;;;4.43;;
17985;SDS011;9118;48.122;11.546;2022-08-21T10:06:40;4.93;;;4.47;;
17985;SDS011;9118;48.122;11.546;2022-08-21T10:09:09;4.57;;;4.23;;
17985;SDS011;9118;48.122;11.546;2022-08-21T10:11:37;4.40;;;4.00;;
17985;SDS011;9118;48.122;11.546;2022-08-21T10:14:08;5.47;;;4.20;;
17985;SDS011;9118;48.122;11.546;2022-08-21T10:16:44;4.73;;;4.33;;
17985;SDS011;9118;48.122;11.546;2022-08-21T10:19:22;4.00;;;3.70;;
17985;SDS011;9118;48.122;11.546;2022-08-21T10:21:59;4.60;;;4.20;;
17985;SDS011;9118;48.122;11.546;2022-08-21T10:24:35;3.73;;;3.43;;
17985;SDS011;9118;48.122;11.546;2022-08-21T10:27:14;3.90;;;3.60;;
17985;SDS011;9118;48.122;11.546;2022-08-21T10:29:50;3.70;;;3.40;;
17985;SDS011;9118;48.122;11.546;2022-08-21T10:32:27;5.30;;;3.47;;
17985;SDS011;9118;48.122;11.546;2022-08-21T10:35:06;4.10;;;3.80;;
17985;SDS011;9118;48.122;11.546;2022-08-21T10:37:40;3.87;;;3.57;;
17985;SDS011;9118;48.122;11.546;2022-08-21T10:40:15;4.80;;;4.40;;
17985;SDS011;9118;48.122;11.546;2022-08-21T10:42:53;4.37;;;3.83;;
17985;SDS011;9118;48.122;11.546;2022-08-21T10:45:43;5.67;;;3.83;;
17985;SDS011;9118;48.122;11.546;2022-08-21T10:48:21;4.57;;;4.00;;
17985;SDS011;9118;48.122;11.546;2022-08-21T10:50:55;4.40;;;4.10;;
17985;SDS011;9118;48.122;11.546;2022-08-21T10:53:45;5.03;;;4.63;;
17985;SDS011;9118;48.122;11.546;2022-08-21T10:56:22;5.10;;;4.60;;
17985;SDS011;9118;48.122;11.546;2022-08-21T10:58:56;4.47;;;3.97;;
17985;SDS011;9118;48.122;11.546;2022-08-21T11:01:46;4.27;;;3.97;;
17985;SDS011;9118;48.122;11.546;2022-08-21T11:04:19;4.20;;;3.80;;
17985;SDS011;9118;48.122;11.546;2022-08-21T11:06:51;3.93;;;3.63;;
17985;SDS011;9118;48.122;11.546;2022-08-21T11:09:24;3.93;;;3.60;;
17985;SDS011;9118;48.122;11.546;2022-08-21T11:11:54;5.47;;;3.70;;
17985;SDS011;9118;48.122;11.546;2022-08-21T11:14:30;4.57;;;4.10;;
17985;SDS011;9118;48.122;11.546;2022-08-21T11:17:07;4.80;;;3.83;;
17985;SDS011;9118;48.122;11.546;2022-08-21T11:19:39;4.10;;;3.80;;
17985;SDS011;9118;48.122;11.546;2022-08-21T11:22:13;4.93;;;4.00;;
17985;SDS011;9118;48.122;11.546;2022-08-21T11:24:46;4.67;;;4.20;;
17985;SDS011;9118;48.122;11.546;2022-08-21T11:27:21;4.03;;;3.73;;
17985;SDS011;9118;48.122;11.546;2022-08-21T11:29:54;5.10;;;3.80;;
17985;SDS011;9118;48.122;11.546;2022-08-21T11:35:28;4.63;;;3.60;;
17985;SDS011;9118;48.122;11.546;2022-08-21T11:38:03;5.77;;;5.27;;
17985;SDS011;9118;48.122;11.546;2022-08-21T11:40:46;4.83;;;4.43;;
17985;SDS011;9118;48.122;11.546;2022-08-21T11:43:21;5.47;;;4.97;;
17985;SDS011;9118;48.122;11.546;2022-08-21T11:46:02;3.63;;;3.33;;
17985;SDS011;9118;48.122;11.546;2022-08-21T11:48:40;4.80;;;3.30;;
17985;SDS011;9118;48.122;11.546;2022-08-21T11:51:17;4.20;;;3.90;;
17985;SDS011;9118;48.122;11.546;2022-08-21T11:53:49;3.73;;;3.40;;
17985;SDS011;9118;48.122;11.546;2022-08-21T11:56:22;3.27;;;2.97;;
17985;SDS011;9118;48.122;11.546;2022-08-21T11:58:55;3.23;;;2.93;;
17985;SDS011;9118;48.122;11.546;2022-08-21T12:01:26;3.67;;;3.27;;
17985;SDS011;9118;48.122;11.546;2022-08-21T12:04:00;3.57;;;3.27;;
17985;SDS011;9118;48.122;11.546;2022-08-21T12:06:32;3.40;;;3.10;;
17985;SDS011;9118;48.122;11.546;2022-08-21T12:09:03;3.43;;;3.23;;
17985;SDS011;9118;48.122;11.546;2022-08-21T12:11:32;3.63;;;3.10;;
17985;SDS011;9118;48.122;11.546;2022-08-21T12:14:13;3.47;;;3.00;;
17985;SDS011;9118;48.122;11.546;2022-08-21T12:16:43;3.27;;;3.07;;
17985;SDS011;9118;48.122;11.546;2022-08-21T12:19:12;3.63;;;3.33;;
17985;SDS011;9118;48.122;11.546;2022-08-21T12:21:58;3.73;;;3.43;;
17985;SDS011;9118;48.122;11.546;2022-08-21T12:24:35;5.83;;;3.53;;
17985;SDS011;9118;48.122;11.546;2022-08-21T12:27:13;3.90;;;3.50;;
17985;SDS011;9118;48.122;11.546;2022-08-21T12:29:47;4.50;;;3.60;;
17985;SDS011;9118;48.122;11.546;2022-08-21T12:32:22;3.63;;;3.30;;
17985;SDS011;9118;48.122;11.546;2022-08-21T12:34:52;4.70;;;4.27;;
17985;SDS011;9118;48.122;11.546;2022-08-21T12:37:27;4.40;;;3.20;;
17985;SDS011;9118;48.122;11.546;2022-08-21T12:40:05;4.30;;;3.90;;
17985;SDS011;9118;48.122;11.546;2022-08-21T12:42:41;3.70;;;3.40;;
17985;SDS011;9118;48.122;11.546;2022-08-21T12:45:14;3.87;;;3.47;;
17985;SDS011;9118;48.122;11.546;2022-08-21T12:47:47;3.37;;;3.07;;
17985;SDS011;9118;48.122;11.546;2022-08-21T12:50:19;4.60;;;3.30;;
17985;SDS011;9118;48.122;11.546;2022-08-21T12:52:55;3.70;;;3.40;;
17985;SDS011;9118;48.122;11.546;2022-08-21T12:55:29;3.20;;;3.00;;
17985;SDS011;9118;48.122;11.546;2022-08-21T12:57:59;4.00;;;3.53;;
17985;SDS011;9118;48.122;11.546;2022-08-21T13:00:36;3.57;;;3.23;;
17985;SDS011;9118;48.122;11.546;2022-08-21T13:03:03;5.93;;;3.27;;
17985;SDS011;9118;48.122;11.546;2022-08-21T13:05:30;3.87;;;3.00;;
17985;SDS011;9118;48.122;11.546;2022-08-21T13:08:04;4.00;;;3.33;;
17985;SDS011;9118;48.122;11.546;2022-08-21T13:10:33;3.13;;;2.90;;
17985;SDS011;9118;48.122;11.546;2022-08-21T13:13:03;4.30;;;3.40;;
17985;SDS011;9118;48.122;11.546;2022-08-21T13:15:34;3.93;;;3.53;;
17985;SDS011;9118;48.122;11.546;2022-08-21T13:18:03;5.70;;;4.00;;
17985;SDS011;9118;48.122;11.546;2022-08-21T13:23:34;3.80;;;3.40;;
17985;SDS011;9118;48.122;11.546;2022-08-21T13:29:44;12.35;;;3.42;;
17985;SDS011;9118;48.122;11.546;2022-08-21T13:32:04;5.67;;;3.90;;
17985;SDS011;9118;48.122;11.546;2022-08-21T13:34:33;3.10;;;2.90;;
17985;SDS011;9118;48.122;11.546;2022-08-21T13:37:04;3.20;;;2.90;;
17985;SDS011;9118;48.122;11.546;2022-08-21T13:39:36;3.47;;;3.17;;
17985;SDS011;9118;48.122;11.546;2022-08-21T13:42:08;3.40;;;3.10;;
17985;SDS011;9118;48.122;11.546;2022-08-21T13:44:39;3.50;;;2.95;;
17985;SDS011;9118;48.122;11.546;2022-08-21T13:47:15;3.53;;;3.23;;
17985;SDS011;9118;48.122;11.546;2022-08-21T13:49:56;3.90;;;3.60;;
17985;SDS011;9118;48.122;11.546;2022-08-21T13:52:46;3.67;;;3.38;;
17985;SDS011;9118;48.122;11.546;2022-08-21T13:55:33;3.50;;;3.20;;
17985;SDS011;9118;48.122;11.546;2022-08-21T13:58:41;4.07;;;3.30;;
17985;SDS011;9118;48.122;11.546;2022-08-21T14:04:06;4.03;;;3.67;;
17985;SDS011;9118;48.122;11.546;2022-08-21T14:07:29;3.83;;;3.53;;
17985;SDS011;9118;48.122;11.546;2022-08-21T14:10:27;4.30;;;3.90;;
17985;SDS011;9118;48.122;11.546;2022-08-21T14:12:58;5.10;;;3.43;;
17985;SDS011;9118;48.122;11.546;2022-08-21T14:15:31;3.58;;;3.20;;
17985;SDS011;9118;48.122;11.546;2022-08-21T14:18:22;3.10;;;2.90;;
17985;SDS011;9118;48.122;11.546;2022-08-21T14:20:51;3.30;;;3.00;;
17985;SDS011;9118;48.122;11.546;2022-08-21T14:23:23;3.80;;;3.40;;
17985;SDS011;9118;48.122;11.546;2022-08-21T14:25:52;3.50;;;3.08;;
17985;SDS011;9118;48.122;11.546;2022-08-21T14:28:31;4.80;;;3.45;;
17985;SDS011;9118;48.122;11.546;2022-08-21T14:31:10;3.90;;;3.50;;
17985;SDS011;9118;48.122;11.546;2022-08-21T14:33:39;3.15;;;2.85;;
17985;SDS011;9118;48.122;11.546;2022-08-21T14:36:07;3.38;;;3.08;;
17985;SDS011;9118;48.122;11.546;2022-08-21T14:38:35;6.60;;;4.07;;
17985;SDS011;9118;48.122;11.546;2022-08-21T14:41:16;9.80;;;5.00;;
17985;SDS011;9118;48.122;11.546;2022-08-21T14:43:45;3.38;;;3.17;;
17985;SDS011;9118;48.122;11.546;2022-08-21T14:46:16;3.10;;;2.80;;
17985;SDS011;9118;48.122;11.546;2022-08-21T14:48:47;3.55;;;2.83;;
17985;SDS011;9118;48.122;11.546;2022-08-21T14:51:19;3.13;;;2.80;;
17985;SDS011;9118;48.122;11.546;2022-08-21T14:54:22;2.88;;;2.67;;
17985;SDS011;9118;48.122;11.546;2022-08-21T14:56:51;3.08;;;2.60;;
17985;SDS011;9118;48.122;11.546;2022-08-21T14:59:20;2.83;;;2.50;;
17985;SDS011;9118;48.122;11.546;2022-08-21T15:01:48;2.90;;;2.70;;
17985;SDS011;9118;48.122;11.546;2022-08-21T15:04:15;2.70;;;2.50;;
17985;SDS011;9118;48.122;11.546;2022-08-21T15:06:45;3.17;;;2.97;;
17985;SDS011;9118;48.122;11.546;2022-08-21T15:09:12;3.47;;;2.72;;
17985;SDS011;9118;48.122;11.546;2022-08-21T15:11:42;3.00;;;2.70;;
17985;SDS011;9118;48.122;11.546;2022-08-21T15:14:24;3.20;;;2.65;;
17985;SDS011;9118;48.122;11.546;2022-08-21T15:16:56;3.70;;;2.80;;
17985;SDS011;9118;48.122;11.546;2022-08-21T15:19:24;4.57;;;2.90;;
17985;SDS011;9118;48.122;11.546;2022-08-21T15:21:56;3.33;;;3.08;;
17985;SDS011;9118;48.122;11.546;2022-08-21T15:24:25;3.20;;;3.00;;